Time;durP1;ratioP1;P1;durP2;ratioP2;P2;SDS_P1;SDS_P2;PMS_P1;PMS_P2;Temp;Humidity;BMP_temperature;BMP_pressure;BME280_temperature;BME280_humidity;BME280_pressure;Samples;Min_cycle;Max_cycle;Signal;HPM_P1;HPM_P2
2023/07/08 00:02:38;;;;;;;5.93;4.03;;;;;;;;;;13043838;22;20353;-81
2023/07/08 00:07:43;;;;;;;7.63;4.20;;;;;;;;;;13048010;22;20365;-81
2023/07/08 00:12:47;;;;;;;7.07;4.43;;;;;;;;;;13049755;22;20369;-82
2023/07/08 00:17:49;;;;;;;6.55;3.85;;;;;;;;;;13049177;22;20434;-81
2023/07/08 00:22:53;;;;;;;6.78;3.63;;;;;;;;;;13046395;22;20722;-80
2023/07/08 00:27:55;;;;;;;5.55;3.65;;;;;;;;;;13045835;22;20419;-82
2023/07/08 00:32:59;;;;;;;7.78;3.85;;;;;;;;;;13044984;22;20365;-81
2023/07/08 00:38:03;;;;;;;4.60;3.43;;;;;;;;;;13045765;22;20365;-81
2023/07/08 00:43:09;;;;;;;5.93;3.70;;;;;;;;;;13044037;22;20458;-81
2023/07/08 00:48:19;;;;;;;5.97;3.63;;;;;;;;;;13044571;22;20365;-82
2023/07/08 00:53:27;;;;;;;5.63;3.55;;;;;;;;;;13044723;22;20426;-81
2023/07/08 00:58:34;;;;;;;4.88;3.30;;;;;;;;;;13044433;22;20373;-81
2023/07/08 01:03:43;;;;;;;4.90;3.50;;;;;;;;;;13044290;22;20440;-82
2023/07/08 01:08:50;;;;;;;5.40;3.80;;;;;;;;;;13045161;22;20414;-81
2023/07/08 01:13:53;;;;;;;5.73;3.40;;;;;;;;;;13045032;22;20370;-81
2023/07/08 01:18:55;;;;;;;5.33;3.87;;;;;;;;;;13043588;22;20759;-80
2023/07/08 01:24:01;;;;;;;6.22;4.18;;;;;;;;;;13044823;22;20365;-80
2023/07/08 01:29:04;;;;;;;5.65;3.72;;;;;;;;;;13044853;22;20419;-80
2023/07/08 01:34:09;;;;;;;6.45;3.97;;;;;;;;;;13043880;22;20685;-79
2023/07/08 01:39:17;;;;;;;7.10;4.70;;;;;;;;;;13044557;22;20434;-80
2023/07/08 01:44:30;;;;;;;6.10;4.47;;;;;;;;;;13044254;22;20673;-80
2023/07/08 01:49:34;;;;;;;7.43;4.65;;;;;;;;;;13043261;22;20427;-80
2023/07/08 01:54:38;;;;;;;8.00;5.32;;;;;;;;;;13043022;22;20357;-80
2023/07/08 01:59:40;;;;;;;8.03;5.53;;;;;;;;;;13044304;22;20454;-80
2023/07/08 02:04:42;;;;;;;7.30;5.45;;;;;;;;;;13043786;22;20361;-80
2023/07/08 02:09:46;;;;;;;10.30;6.40;;;;;;;;;;13043786;22;20423;-80
2023/07/08 02:14:48;;;;;;;9.57;5.55;;;;;;;;;;13042874;22;20353;-81
2023/07/08 02:19:50;;;;;;;9.13;5.90;;;;;;;;;;13043470;22;20759;-80
2023/07/08 02:24:54;;;;;;;8.90;6.07;;;;;;;;;;13042710;22;20451;-80
2023/07/08 02:29:56;;;;;;;8.35;5.20;;;;;;;;;;13043708;22;20356;-80
2023/07/08 02:34:59;;;;;;;8.13;5.63;;;;;;;;;;13042747;22;20361;-80
2023/07/08 02:40:02;;;;;;;10.15;5.50;;;;;;;;;;13042391;22;20917;-79
2023/07/08 02:45:06;;;;;;;6.73;5.30;;;;;;;;;;13042266;22;20395;-80
2023/07/08 02:50:09;;;;;;;7.80;5.38;;;;;;;;;;13015645;22;20387;-80
2023/07/08 02:55:13;;;;;;;7.50;5.33;;;;;;;;;;13041592;22;20898;-80
2023/07/08 03:00:16;;;;;;;9.35;5.88;;;;;;;;;;13041519;22;20384;-80
2023/07/08 03:05:19;;;;;;;10.73;6.60;;;;;;;;;;13043152;22;20407;-80
2023/07/08 03:10:22;;;;;;;8.20;6.22;;;;;;;;;;13042358;22;20361;-80
2023/07/08 03:15:24;;;;;;;9.82;6.47;;;;;;;;;;13042113;22;20368;-79
2023/07/08 03:20:27;;;;;;;11.18;6.60;;;;;;;;;;13041410;22;20686;-80
2023/07/08 03:25:30;;;;;;;10.48;6.63;;;;;;;;;;13042745;22;20422;-80
2023/07/08 03:30:33;;;;;;;9.98;6.15;;;;;;;;;;13042362;22;20357;-80
2023/07/08 03:35:36;;;;;;;9.65;6.70;;;;;;;;;;13042058;22;20368;-80
2023/07/08 03:40:39;;;;;;;9.90;6.97;;;;;;;;;;13041318;22;20789;-80
2023/07/08 03:45:42;;;;;;;10.75;7.13;;;;;;;;;;13042875;22;20353;-80
2023/07/08 03:50:44;;;;;;;11.57;7.63;;;;;;;;;;13043377;22;20705;-79
2023/07/08 03:55:48;;;;;;;10.40;7.03;;;;;;;;;;13043417;22;20360;-79
2023/07/08 04:00:50;;;;;;;10.95;7.00;;;;;;;;;;13046527;22;20917;-80
2023/07/08 04:05:52;;;;;;;10.88;7.10;;;;;;;;;;13045819;22;20394;-80
2023/07/08 04:10:56;;;;;;;10.00;6.57;;;;;;;;;;13045234;22;20369;-80
2023/07/08 04:16:02;;;;;;;10.55;6.35;;;;;;;;;;13046369;22;20391;-80
2023/07/08 04:21:04;;;;;;;8.73;6.03;;;;;;;;;;13046431;22;20733;-80
2023/07/08 04:26:10;;;;;;;7.20;5.55;;;;;;;;;;13046245;22;20399;-80
2023/07/08 04:31:12;;;;;;;8.43;5.50;;;;;;;;;;13046136;22;20387;-80
2023/07/08 04:36:15;;;;;;;7.88;5.40;;;;;;;;;;13045673;22;20395;-80
2023/07/08 04:41:19;;;;;;;8.33;5.17;;;;;;;;;;13044707;22;20415;-80
2023/07/08 04:46:31;;;;;;;7.67;5.13;;;;;;;;;;13044720;22;20357;-79
2023/07/08 04:51:33;;;;;;;6.90;5.07;;;;;;;;;;13043748;22;20685;-79
2023/07/08 04:56:39;;;;;;;7.13;5.13;;;;;;;;;;13043752;22;20858;-80
2023/07/08 05:01:42;;;;;;;7.00;4.30;;;;;;;;;;13044436;22;20426;-80
2023/07/08 05:06:45;;;;;;;6.10;4.17;;;;;;;;;;13043432;22;20369;-80
2023/07/08 05:11:48;;;;;;;6.85;4.55;;;;;;;;;;13043538;22;20418;-80
2023/07/08 05:16:50;;;;;;;5.90;3.93;;;;;;;;;;13044014;22;20693;-80
2023/07/08 05:21:53;;;;;;;6.32;4.25;;;;;;;;;;13043521;22;20410;-80
2023/07/08 05:26:58;;;;;;;6.07;4.10;;;;;;;;;;13044242;22;20389;-80
2023/07/08 05:32:00;;;;;;;6.67;3.80;;;;;;;;;;13044010;22;20427;-80
2023/07/08 05:37:03;;;;;;;5.80;3.80;;;;;;;;;;13044169;22;20422;-79
2023/07/08 05:42:07;;;;;;;6.03;3.78;;;;;;;;;;13042790;22;20381;-80
2023/07/08 05:47:09;;;;;;;6.53;3.75;;;;;;;;;;13043003;22;20365;-80
2023/07/08 05:52:12;;;;;;;6.70;4.07;;;;;;;;;;13043059;22;20361;-80
2023/07/08 05:57:15;;;;;;;7.72;3.90;;;;;;;;;;13043945;22;20365;-80
2023/07/08 06:02:19;;;;;;;5.72;4.00;;;;;;;;;;13043021;22;20381;-80
2023/07/08 06:07:21;;;;;;;6.35;3.65;;;;;;;;;;13044151;22;20391;-80
2023/07/08 06:12:25;;;;;;;6.95;3.72;;;;;;;;;;13042989;22;20387;-80
2023/07/08 06:17:28;;;;;;;8.00;3.58;;;;;;;;;;13042926;22;20387;-81
2023/07/08 06:22:30;;;;;;;6.03;3.97;;;;;;;;;;13043350;22;20426;-80
2023/07/08 06:27:33;;;;;;;5.53;3.70;;;;;;;;;;13042809;22;20361;-80
2023/07/08 06:32:36;;;;;;;6.40;3.90;;;;;;;;;;13042620;22;20451;-80
2023/07/08 06:37:38;;;;;;;5.75;3.85;;;;;;;;;;13042581;22;20728;-81
2023/07/08 06:42:42;;;;;;;6.60;4.17;;;;;;;;;;13042085;22;20377;-80
2023/07/08 06:47:45;;;;;;;7.60;4.10;;;;;;;;;;13042330;22;20365;-81
2023/07/08 06:52:47;;;;;;;5.65;4.10;;;;;;;;;;13041226;22;20886;-81
2023/07/08 06:57:51;;;;;;;7.47;4.07;;;;;;;;;;13039627;22;20438;-80
2023/07/08 07:02:54;;;;;;;9.03;4.40;;;;;;;;;;13038477;22;20456;-80
2023/07/08 07:07:56;;;;;;;6.80;4.17;;;;;;;;;;13042215;22;20993;-81
2023/07/08 07:13:00;;;;;;;7.50;4.10;;;;;;;;;;13039462;22;20422;-81
2023/07/08 07:18:03;;;;;;;6.30;4.03;;;;;;;;;;13041723;22;20361;-82
2023/07/08 07:23:05;;;;;;;7.97;4.10;;;;;;;;;;13032843;22;20450;-80
2023/07/08 07:28:09;;;;;;;7.47;4.55;;;;;;;;;;13036290;22;20438;-80
2023/07/08 07:33:11;;;;;;;6.78;4.35;;;;;;;;;;13039382;22;20360;-80
2023/07/08 07:38:16;;;;;;;7.82;4.35;;;;;;;;;;13040262;22;20415;-80
2023/07/08 07:43:19;;;;;;;6.07;4.17;;;;;;;;;;13039427;22;20438;-80
2023/07/08 07:48:24;;;;;;;7.80;4.60;;;;;;;;;;13039640;22;20633;-81
2023/07/08 07:53:26;;;;;;;6.35;3.70;;;;;;;;;;13041184;22;20430;-80
2023/07/08 07:58:31;;;;;;;6.38;3.83;;;;;;;;;;13039775;22;20907;-80
2023/07/08 08:03:33;;;;;;;9.00;4.30;;;;;;;;;;13039570;22;20864;-81
2023/07/08 08:08:35;;;;;;;7.95;4.28;;;;;;;;;;13038969;22;20353;-78
2023/07/08 08:13:39;;;;;;;5.63;3.83;;;;;;;;;;13039224;22;20419;-79
2023/07/08 08:18:41;;;;;;;7.72;4.25;;;;;;;;;;13034497;22;20414;-87
2023/07/08 08:23:43;;;;;;;6.80;4.07;;;;;;;;;;13039388;22;20381;-81
2023/07/08 08:28:47;;;;;;;6.65;4.10;;;;;;;;;;13033712;22;20744;-81
2023/07/08 08:33:52;;;;;;;6.30;4.00;;;;;;;;;;13025296;22;20369;-81
2023/07/08 08:38:54;;;;;;;5.38;3.50;;;;;;;;;;13027781;22;20423;-80
2023/07/08 08:43:58;;;;;;;5.13;3.78;;;;;;;;;;13026403;22;20778;-80
2023/07/08 08:49:12;;;;;;;6.90;4.10;;;;;;;;;;13028786;22;20685;-90
2023/07/08 08:54:14;;;;;;;6.47;4.18;;;;;;;;;;13031091;22;20361;-84
2023/07/08 08:59:28;;;;;;;15.73;4.30;;;;;;;;;;13031241;22;20942;-84
2023/07/08 09:04:36;;;;;;;7.07;4.32;;;;;;;;;;13037662;22;20377;-90
2023/07/08 09:09:47;;;;;;;5.65;3.60;;;;;;;;;;13039752;22;20890;-80
2023/07/08 09:14:51;;;;;;;6.15;3.50;;;;;;;;;;13037928;22;20361;-81
2023/07/08 09:20:02;;;;;;;11.40;4.72;;;;;;;;;;13038617;22;20903;-78
2023/07/08 09:25:08;;;;;;;6.32;3.50;;;;;;;;;;13034452;22;20441;-83
2023/07/08 09:30:15;;;;;;;7.80;4.18;;;;;;;;;;13037243;22;20361;-77
2023/07/08 09:35:20;;;;;;;6.70;3.63;;;;;;;;;;13038236;22;20418;-76
2023/07/08 09:40:29;;;;;;;5.53;3.80;;;;;;;;;;13037316;22;20369;-77
2023/07/08 09:45:42;;;;;;;5.03;3.30;;;;;;;;;;13037623;22;20391;-77
2023/07/08 09:50:52;;;;;;;4.73;3.70;;;;;;;;;;13037558;22;21146;-81
2023/07/08 09:55:57;;;;;;;4.78;3.22;;;;;;;;;;13039095;22;20361;-80
2023/07/08 10:01:09;;;;;;;5.45;3.47;;;;;;;;;;13038445;22;20989;-80
2023/07/08 10:06:18;;;;;;;6.75;3.80;;;;;;;;;;13037620;22;20687;-80
2023/07/08 10:11:29;;;;;;;4.57;3.28;;;;;;;;;;13038515;22;20914;-82
2023/07/08 10:16:34;;;;;;;6.43;4.10;;;;;;;;;;13037097;22;20441;-80
2023/07/08 10:21:46;;;;;;;5.40;3.57;;;;;;;;;;13038852;22;20442;-80
2023/07/08 10:26:58;;;;;;;5.73;3.83;;;;;;;;;;13037927;22;20470;-81
2023/07/08 10:32:13;;;;;;;5.78;3.60;;;;;;;;;;13038115;22;20415;-80
2023/07/08 10:37:24;;;;;;;5.00;3.20;;;;;;;;;;13036597;22;20833;-81
2023/07/08 10:42:54;;;;;;;4.18;3.05;;;;;;;;;;13025128;22;20381;-81
2023/07/08 10:48:10;;;;;;;5.35;3.40;;;;;;;;;;12981165;22;20936;-77
2023/07/08 10:53:28;;;;;;;5.43;3.60;;;;;;;;;;13026660;22;20392;-81
2023/07/08 10:58:53;;;;;;;6.53;3.50;;;;;;;;;;13027658;22;20387;-81
2023/07/08 11:04:19;;;;;;;5.25;3.08;;;;;;;;;;13033125;22;20419;-81
2023/07/08 11:09:27;;;;;;;5.20;3.20;;;;;;;;;;13035726;22;20387;-81
2023/07/08 11:14:43;;;;;;;5.17;3.17;;;;;;;;;;13036584;22;20369;-78
2023/07/08 11:19:53;;;;;;;4.88;2.88;;;;;;;;;;13037068;22;20365;-79
2023/07/08 11:24:58;;;;;;;4.65;3.50;;;;;;;;;;13035668;22;20450;-81
2023/07/08 11:30:06;;;;;;;3.85;3.08;;;;;;;;;;13037919;22;20759;-81
2023/07/08 11:35:20;;;;;;;4.60;3.10;;;;;;;;;;13037525;22;20435;-81
2023/07/08 11:40:24;;;;;;;3.85;2.83;;;;;;;;;;13036797;22;20368;-81
2023/07/08 11:45:31;;;;;;;3.53;2.80;;;;;;;;;;13036653;22;20389;-81
2023/07/08 11:50:39;;;;;;;4.07;2.90;;;;;;;;;;13036431;22;20365;-81
2023/07/08 11:55:47;;;;;;;4.25;2.92;;;;;;;;;;13035878;22;20357;-81
2023/07/08 12:00:58;;;;;;;5.57;2.92;;;;;;;;;;13035066;22;20453;-81
2023/07/08 12:06:06;;;;;;;4.43;3.17;;;;;;;;;;13037360;22;20860;-81
2023/07/08 12:11:12;;;;;;;5.23;3.07;;;;;;;;;;13034870;22;20357;-81
2023/07/08 12:16:14;;;;;;;3.85;2.88;;;;;;;;;;13037327;22;20404;-82
2023/07/08 12:21:18;;;;;;;4.03;2.87;;;;;;;;;;13041284;22;20403;-81
2023/07/08 12:26:22;;;;;;;4.18;2.85;;;;;;;;;;13040146;22;20747;-81
2023/07/08 12:31:25;;;;;;;3.80;2.88;;;;;;;;;;13039880;22;20848;-81
2023/07/08 12:36:32;;;;;;;5.07;3.08;;;;;;;;;;13040363;22;20395;-82
2023/07/08 12:41:36;;;;;;;5.60;3.35;;;;;;;;;;13039338;22;20381;-82
2023/07/08 12:46:38;;;;;;;4.70;2.80;;;;;;;;;;13042684;22;20736;-81
2023/07/08 12:51:45;;;;;;;3.63;3.10;;;;;;;;;;13042500;22;20357;-82
2023/07/08 12:56:47;;;;;;;5.03;2.85;;;;;;;;;;13043871;22;20364;-81
2023/07/08 13:01:51;;;;;;;5.18;3.03;;;;;;;;;;13042428;22;20415;-82
2023/07/08 13:06:55;;;;;;;4.55;2.97;;;;;;;;;;13042083;22;20741;-81
2023/07/08 13:11:58;;;;;;;5.77;2.97;;;;;;;;;;13041415;22;20813;-83
2023/07/08 13:17:01;;;;;;;4.68;3.30;;;;;;;;;;13015838;22;20430;-82
2023/07/08 13:22:06;;;;;;;4.93;3.10;;;;;;;;;;13032431;22;20969;-80
2023/07/08 13:27:15;;;;;;;4.80;3.23;;;;;;;;;;13032831;22;20666;-80
2023/07/08 13:32:18;;;;;;;5.15;2.95;;;;;;;;;;13028468;22;20406;-82
2023/07/08 13:37:25;;;;;;;5.38;3.25;;;;;;;;;;13033057;22;21037;-83
2023/07/08 13:42:27;;;;;;;5.80;2.83;;;;;;;;;;13030962;22;20464;-83
2023/07/08 13:47:31;;;;;;;6.32;3.13;;;;;;;;;;13033418;22;20454;-82
2023/07/08 13:52:34;;;;;;;4.88;2.92;;;;;;;;;;13033213;22;20377;-82
2023/07/08 13:57:40;;;;;;;5.28;3.13;;;;;;;;;;13033335;22;20431;-83
2023/07/08 14:02:45;;;;;;;3.80;2.50;;;;;;;;;;13030578;22;20381;-82
2023/07/08 14:07:49;;;;;;;5.22;2.90;;;;;;;;;;13032474;22;20373;-82
2023/07/08 14:12:52;;;;;;;4.97;3.00;;;;;;;;;;13033295;22;20369;-82
2023/07/08 14:17:54;;;;;;;4.72;2.90;;;;;;;;;;13032816;22;20411;-83
2023/07/08 14:22:58;;;;;;;3.60;2.90;;;;;;;;;;13032353;22;20448;-83
2023/07/08 14:28:02;;;;;;;5.20;3.28;;;;;;;;;;13032886;22;20434;-82
2023/07/08 14:33:05;;;;;;;4.63;2.90;;;;;;;;;;13025966;22;20376;-82
2023/07/08 14:38:11;;;;;;;4.95;3.00;;;;;;;;;;13027835;22;20868;-81
2023/07/08 14:43:18;;;;;;;4.68;2.70;;;;;;;;;;13028606;22;20380;-76
2023/07/08 14:48:21;;;;;;;4.78;3.28;;;;;;;;;;13027415;22;20438;-81
2023/07/08 14:53:25;;;;;;;3.90;2.57;;;;;;;;;;13028776;22;20376;-77
2023/07/08 14:58:30;;;;;;;4.05;2.80;;;;;;;;;;13029360;22;20418;-80
2023/07/08 15:03:32;;;;;;;4.45;2.88;;;;;;;;;;13030081;22;20907;-80
2023/07/08 15:08:36;;;;;;;4.50;2.60;;;;;;;;;;13029390;22;20365;-76
2023/07/08 15:13:39;;;;;;;4.97;3.25;;;;;;;;;;13027881;22;20430;-82
2023/07/08 15:18:42;;;;;;;4.80;2.97;;;;;;;;;;13028112;22;20380;-82
2023/07/08 15:23:45;;;;;;;4.67;2.90;;;;;;;;;;13027808;22;20389;-83
2023/07/08 15:28:51;;;;;;;2.73;2.43;;;;;;;;;;13027630;22;20880;-83
2023/07/08 15:33:54;;;;;;;3.60;2.90;;;;;;;;;;13026275;22;20446;-82
2023/07/08 15:38:57;;;;;;;4.55;3.13;;;;;;;;;;13023865;22;20445;-81
2023/07/08 15:44:01;;;;;;;4.05;2.97;;;;;;;;;;13023118;22;20377;-82
2023/07/08 15:49:14;;;;;;;3.33;2.67;;;;;;;;;;13021540;22;20426;-82
2023/07/08 15:54:18;;;;;;;7.88;2.70;;;;;;;;;;13030101;22;20429;-82
2023/07/08 15:59:27;;;;;;;3.58;2.80;;;;;;;;;;13030946;22;20364;-82
2023/07/08 16:04:33;;;;;;;5.30;3.22;;;;;;;;;;13029862;22;20384;-82
2023/07/08 16:09:36;;;;;;;4.50;2.97;;;;;;;;;;13027190;22;20372;-82
2023/07/08 16:14:39;;;;;;;4.15;2.75;;;;;;;;;;13027601;22;20467;-82
2023/07/08 16:19:42;;;;;;;5.47;2.95;;;;;;;;;;13024099;22;21125;-83
2023/07/08 16:24:46;;;;;;;5.03;2.95;;;;;;;;;;13032243;22;20841;-83
2023/07/08 16:29:48;;;;;;;4.28;2.80;;;;;;;;;;13032438;22;20364;-82
2023/07/08 16:34:50;;;;;;;3.37;2.77;;;;;;;;;;13037306;22;20357;-83
2023/07/08 16:39:55;;;;;;;4.80;3.00;;;;;;;;;;13034927;22;20365;-83
2023/07/08 16:44:57;;;;;;;4.77;3.07;;;;;;;;;;13029164;22;20380;-83
2023/07/08 16:50:00;;;;;;;4.32;3.00;;;;;;;;;;13033667;22;20399;-82
2023/07/08 16:55:09;;;;;;;4.35;2.90;;;;;;;;;;13038188;22;20832;-83
2023/07/08 17:00:14;;;;;;;4.70;3.07;;;;;;;;;;13040474;22;20433;-84
2023/07/08 17:05:20;;;;;;;4.43;2.70;;;;;;;;;;13005063;22;20381;-83
2023/07/08 17:10:24;;;;;;;4.23;3.10;;;;;;;;;;13038920;22;20426;-83
2023/07/08 17:15:30;;;;;;;5.25;3.53;;;;;;;;;;13041932;22;20410;-83
2023/07/08 17:20:34;;;;;;;5.03;3.70;;;;;;;;;;13035251;22;20445;-83
2023/07/08 17:25:38;;;;;;;6.57;4.20;;;;;;;;;;13039796;22;20385;-82
2023/07/08 17:30:42;;;;;;;5.53;3.77;;;;;;;;;;13030321;22;20384;-84
2023/07/08 17:35:46;;;;;;;4.47;2.80;;;;;;;;;;13031859;22;20369;-83
2023/07/08 17:40:50;;;;;;;4.47;3.27;;;;;;;;;;13029608;22;20372;-82
2023/07/08 17:45:53;;;;;;;4.45;3.63;;;;;;;;;;13029860;22;20381;-82
2023/07/08 17:50:55;;;;;;;4.32;3.10;;;;;;;;;;13035241;22;20682;-82
2023/07/08 17:56:00;;;;;;;6.07;3.00;;;;;;;;;;13033371;22;20856;-83
2023/07/08 18:01:02;;;;;;;5.30;3.50;;;;;;;;;;13027986;22;20377;-82
2023/07/08 18:06:04;;;;;;;3.67;2.97;;;;;;;;;;13025642;22;20416;-82
2023/07/08 18:11:12;;;;;;;4.83;2.87;;;;;;;;;;13020107;22;20436;-84
2023/07/08 18:16:15;;;;;;;4.35;3.30;;;;;;;;;;13022621;22;20369;-82
2023/07/08 18:21:20;;;;;;;4.45;3.03;;;;;;;;;;13020435;22;20381;-83
2023/07/08 18:26:26;;;;;;;4.60;3.40;;;;;;;;;;13019421;22;20925;-82
2023/07/08 18:31:31;;;;;;;5.32;3.03;;;;;;;;;;13022125;22;20373;-82
2023/07/08 18:36:35;;;;;;;5.80;2.97;;;;;;;;;;13020175;22;20434;-82
2023/07/08 18:41:42;;;;;;;4.43;2.90;;;;;;;;;;13020826;22;20434;-82
2023/07/08 18:46:45;;;;;;;4.20;2.85;;;;;;;;;;13020959;22;20471;-83
2023/07/08 18:51:49;;;;;;;6.95;3.47;;;;;;;;;;13022975;22;20516;-82
2023/07/08 18:56:52;;;;;;;6.10;3.42;;;;;;;;;;13022815;22;20399;-83
2023/07/08 19:01:55;;;;;;;4.83;2.90;;;;;;;;;;13022764;22;20761;-82
2023/07/08 19:06:58;;;;;;;4.87;3.10;;;;;;;;;;13026238;22;20450;-82
2023/07/08 19:12:01;;;;;;;6.43;3.30;;;;;;;;;;13026136;22;20845;-82
2023/07/08 19:17:04;;;;;;;6.32;3.30;;;;;;;;;;13025711;22;20438;-82
2023/07/08 19:22:10;;;;;;;4.70;3.42;;;;;;;;;;13027159;22;20440;-82
2023/07/08 19:27:16;;;;;;;5.82;3.40;;;;;;;;;;13032142;22;20443;-82
2023/07/08 19:32:18;;;;;;;5.27;3.33;;;;;;;;;;13030570;22;20373;-82
2023/07/08 19:37:21;;;;;;;4.27;3.03;;;;;;;;;;13031974;22;20407;-82
2023/07/08 19:42:26;;;;;;;5.60;3.60;;;;;;;;;;13031941;22;20381;-82
2023/07/08 19:47:29;;;;;;;5.03;3.40;;;;;;;;;;13028848;22;20438;-82
2023/07/08 19:52:31;;;;;;;4.70;3.50;;;;;;;;;;13032791;22;20430;-83
2023/07/08 19:57:42;;;;;;;4.63;3.40;;;;;;;;;;13042354;22;20918;-83
2023/07/08 20:02:44;;;;;;;3.97;3.30;;;;;;;;;;13044814;22;20426;-83
2023/07/08 20:07:47;;;;;;;5.53;3.20;;;;;;;;;;13042443;22;20747;-84
2023/07/08 20:12:51;;;;;;;5.03;3.50;;;;;;;;;;13043865;22;20829;-83
2023/07/08 20:17:54;;;;;;;5.40;3.35;;;;;;;;;;13042499;22;20361;-83
2023/07/08 20:22:56;;;;;;;6.63;3.70;;;;;;;;;;13044550;22;20833;-83
2023/07/08 20:28:00;;;;;;;8.10;4.20;;;;;;;;;;13042603;22;20384;-83
2023/07/08 20:33:02;;;;;;;6.65;4.15;;;;;;;;;;13044601;22;20360;-82
2023/07/08 20:38:04;;;;;;;7.80;4.20;;;;;;;;;;13042666;22;20438;-83
2023/07/08 20:43:12;;;;;;;6.55;4.43;;;;;;;;;;13042380;22;20365;-84
2023/07/08 20:48:20;;;;;;;5.75;4.20;;;;;;;;;;13044803;22;20449;-83
2023/07/08 20:53:25;;;;;;;6.40;4.22;;;;;;;;;;13044155;22;20363;-83
2023/07/08 20:58:29;;;;;;;6.57;4.13;;;;;;;;;;13044085;22;20365;-83
2023/07/08 21:03:31;;;;;;;6.83;4.67;;;;;;;;;;13043691;22;20361;-83
2023/07/08 21:08:37;;;;;;;6.57;4.00;;;;;;;;;;13042782;22;20377;-83
2023/07/08 21:13:40;;;;;;;6.47;4.07;;;;;;;;;;13043512;22;20369;-83
2023/07/08 21:18:43;;;;;;;4.60;3.80;;;;;;;;;;13043018;22;20890;-83
2023/07/08 21:23:46;;;;;;;6.80;4.37;;;;;;;;;;13041659;22;20832;-83
2023/07/08 21:28:52;;;;;;;5.95;3.80;;;;;;;;;;13039265;22;20750;-83
2023/07/08 21:33:54;;;;;;;7.72;4.28;;;;;;;;;;13032970;22;20376;-83
2023/07/08 21:38:59;;;;;;;6.38;4.22;;;;;;;;;;13033052;22;20369;-83
2023/07/08 21:44:03;;;;;;;6.78;4.32;;;;;;;;;;13031646;22;20434;-83
2023/07/08 21:49:05;;;;;;;7.40;4.53;;;;;;;;;;13031840;22;20430;-83
2023/07/08 21:54:10;;;;;;;7.10;4.95;;;;;;;;;;13033322;22;20426;-83
2023/07/08 21:59:18;;;;;;;7.23;4.20;;;;;;;;;;13032635;22;20373;-83
2023/07/08 22:04:22;;;;;;;6.77;4.30;;;;;;;;;;13032652;22;20377;-82
2023/07/08 22:09:24;;;;;;;6.37;4.83;;;;;;;;;;13031453;22;20442;-83
2023/07/08 22:14:28;;;;;;;5.82;4.20;;;;;;;;;;13032204;22;20877;-83
2023/07/08 22:19:30;;;;;;;6.45;4.20;;;;;;;;;;13033204;22;20373;-83
2023/07/08 22:24:32;;;;;;;5.70;4.07;;;;;;;;;;13033023;22;20389;-83
2023/07/08 22:29:36;;;;;;;6.50;4.20;;;;;;;;;;13031674;22;20461;-83
2023/07/08 22:34:38;;;;;;;6.70;4.28;;;;;;;;;;13031851;22;20377;-82
2023/07/08 22:39:41;;;;;;;5.75;4.03;;;;;;;;;;13031899;22;20915;-82
2023/07/08 22:44:45;;;;;;;6.13;3.85;;;;;;;;;;13032840;22;20373;-82
2023/07/08 22:49:47;;;;;;;5.95;4.10;;;;;;;;;;13035073;22;20430;-83
2023/07/08 22:54:49;;;;;;;6.90;4.47;;;;;;;;;;13038936;22;20361;-83
2023/07/08 22:59:53;;;;;;;6.38;4.70;;;;;;;;;;13039283;22;20361;-82
2023/07/08 23:04:55;;;;;;;6.72;4.20;;;;;;;;;;13041762;22;20373;-82
2023/07/08 23:09:57;;;;;;;6.57;4.40;;;;;;;;;;13041496;22;20361;-83
2023/07/08 23:15:01;;;;;;;9.23;6.90;;;;;;;;;;13042674;22;20361;-83
2023/07/08 23:20:06;;;;;;;11.25;5.90;;;;;;;;;;13040844;22;20402;-81
2023/07/08 23:25:09;;;;;;;7.18;4.85;;;;;;;;;;13039938;22;20385;-82
2023/07/08 23:30:17;;;;;;;8.10;5.70;;;;;;;;;;13040498;22;20898;-83
2023/07/08 23:35:19;;;;;;;10.97;6.33;;;;;;;;;;13042009;22;20446;-82
2023/07/08 23:40:22;;;;;;;9.82;6.50;;;;;;;;;;13008909;22;20403;-86
2023/07/08 23:45:26;;;;;;;9.00;6.93;;;;;;;;;;12934064;23;20432;-85
2023/07/08 23:50:30;;;;;;;11.75;6.97;;;;;;;;;;12915414;22;20685;-86
2023/07/08 23:55:32;;;;;;;10.15;7.03;;;;;;;;;;12912022;22;20432;-85
